Time;durP1;ratioP1;P1;durP2;ratioP2;P2;SDS_P1;SDS_P2;PMS_P1;PMS_P2;Temp;Humidity;BMP_temperature;BMP_pressure;BME280_temperature;BME280_humidity;BME280_pressure;Samples;Min_cycle;Max_cycle;Signal;HPM_P1;HPM_P2
2021/04/15 00:00:04;;;;;;;4.1;3.4;;;;;;;;;;;;;
2021/04/15 00:02:29;;;;;;;4.5;3.8;;;;;;;;;;;;;
2021/04/15 00:04:55;;;;;;;12.6;8.1;;;;;;;;;;;;;
2021/04/15 00:07:20;;;;;;;8.9;5.4;;;;;;;;;;;;;
2021/04/15 00:09:45;;;;;;;6.2;4.5;;;;;;;;;;;;;
2021/04/15 00:12:10;;;;;;;6.7;4.5;;;;;;;;;;;;;
2021/04/15 00:14:37;;;;;;;7;3.7;;;;;;;;;;;;;
2021/04/15 00:17:02;;;;;;;6.3;4.4;;;;;;;;;;;;;
2021/04/15 00:19:28;;;;;;;5.9;4.3;;;;;;;;;;;;;
2021/04/15 00:21:53;;;;;;;5.5;4.2;;;;;;;;;;;;;
2021/04/15 00:24:18;;;;;;;8.8;4.7;;;;;;;;;;;;;
2021/04/15 00:26:43;;;;;;;8.3;5;;;;;;;;;;;;;
2021/04/15 00:29:09;;;;;;;7.7;4;;;;;;;;;;;;;
2021/04/15 00:31:34;;;;;;;9.2;5;;;;;;;;;;;;;
2021/04/15 00:34:01;;;;;;;6.4;3.8;;;;;;;;;;;;;
2021/04/15 00:36:26;;;;;;;6.9;4;;;;;;;;;;;;;
2021/04/15 00:38:51;;;;;;;7.5;3.7;;;;;;;;;;;;;
2021/04/15 00:41:16;;;;;;;5.8;3.2;;;;;;;;;;;;;
2021/04/15 00:43:42;;;;;;;4.2;2.9;;;;;;;;;;;;;
2021/04/15 00:46:08;;;;;;;6;3.6;;;;;;;;;;;;;
2021/04/15 00:48:34;;;;;;;5.4;3.8;;;;;;;;;;;;;
2021/04/15 00:50:59;;;;;;;4.3;3.5;;;;;;;;;;;;;
2021/04/15 00:53:25;;;;;;;6.4;4.4;;;;;;;;;;;;;
2021/04/15 00:55:50;;;;;;;5.8;4.3;;;;;;;;;;;;;
2021/04/15 00:58:16;;;;;;;8;4.3;;;;;;;;;;;;;
2021/04/15 01:00:41;;;;;;;5.3;4;;;;;;;;;;;;;
2021/04/15 01:03:08;;;;;;;6.6;3.9;;;;;;;;;;;;;
2021/04/15 01:05:33;;;;;;;7.2;4.8;;;;;;;;;;;;;
2021/04/15 01:07:58;;;;;;;7;4;;;;;;;;;;;;;
2021/04/15 01:10:23;;;;;;;6.8;4.7;;;;;;;;;;;;;
2021/04/15 01:12:51;;;;;;;7.5;4.6;;;;;;;;;;;;;
2021/04/15 01:15:14;;;;;;;7.7;4.5;;;;;;;;;;;;;
2021/04/15 01:17:40;;;;;;;5.6;4.5;;;;;;;;;;;;;
2021/04/15 01:20:05;;;;;;;8.3;4.9;;;;;;;;;;;;;
2021/04/15 01:22:31;;;;;;;6.9;4.5;;;;;;;;;;;;;
2021/04/15 01:24:56;;;;;;;5.7;4;;;;;;;;;;;;;
2021/04/15 01:27:21;;;;;;;8.8;5.2;;;;;;;;;;;;;
2021/04/15 01:29:46;;;;;;;5.4;3.5;;;;;;;;;;;;;
2021/04/15 01:32:12;;;;;;;5.5;4.3;;;;;;;;;;;;;
2021/04/15 01:34:37;;;;;;;5;3.3;;;;;;;;;;;;;
2021/04/15 01:37:03;;;;;;;6.8;4.5;;;;;;;;;;;;;
2021/04/15 01:39:28;;;;;;;6.3;3.6;;;;;;;;;;;;;
2021/04/15 01:41:53;;;;;;;5.3;3.8;;;;;;;;;;;;;
2021/04/15 01:44:18;;;;;;;4.9;3.7;;;;;;;;;;;;;
2021/04/15 01:46:44;;;;;;;5.5;3.5;;;;;;;;;;;;;
2021/04/15 01:49:09;;;;;;;4.7;3.6;;;;;;;;;;;;;
2021/04/15 01:51:34;;;;;;;9.9;4.1;;;;;;;;;;;;;
2021/04/15 01:53:59;;;;;;;5.4;3.6;;;;;;;;;;;;;
2021/04/15 01:56:24;;;;;;;5;3.9;;;;;;;;;;;;;
2021/04/15 01:58:50;;;;;;;7.5;4.3;;;;;;;;;;;;;
2021/04/15 02:01:15;;;;;;;4.3;3.7;;;;;;;;;;;;;
2021/04/15 02:03:40;;;;;;;4.6;3;;;;;;;;;;;;;
2021/04/15 02:06:05;;;;;;;4.4;3.7;;;;;;;;;;;;;
2021/04/15 02:08:30;;;;;;;4.1;3.6;;;;;;;;;;;;;
2021/04/15 02:10:56;;;;;;;6.8;3.9;;;;;;;;;;;;;
2021/04/15 02:13:22;;;;;;;3.6;2.7;;;;;;;;;;;;;
2021/04/15 02:15:50;;;;;;;5.2;3.4;;;;;;;;;;;;;
2021/04/15 02:18:14;;;;;;;4.2;2.8;;;;;;;;;;;;;
2021/04/15 02:20:40;;;;;;;2.3;2.1;;;;;;;;;;;;;
2021/04/15 02:23:05;;;;;;;3.7;2.2;;;;;;;;;;;;;
2021/04/15 02:25:32;;;;;;;6.2;3.2;;;;;;;;;;;;;
2021/04/15 02:27:57;;;;;;;7.6;3.4;;;;;;;;;;;;;
2021/04/15 02:30:24;;;;;;;3.5;2.6;;;;;;;;;;;;;
2021/04/15 02:32:49;;;;;;;5.1;3.2;;;;;;;;;;;;;
2021/04/15 02:35:14;;;;;;;3.7;2.4;;;;;;;;;;;;;
2021/04/15 02:37:39;;;;;;;3.5;2.7;;;;;;;;;;;;;
2021/04/15 02:40:04;;;;;;;2.4;2.2;;;;;;;;;;;;;
2021/04/15 02:42:29;;;;;;;4.5;3.3;;;;;;;;;;;;;
2021/04/15 02:44:58;;;;;;;6;2.6;;;;;;;;;;;;;
2021/04/15 02:47:20;;;;;;;3.7;2.6;;;;;;;;;;;;;
2021/04/15 02:49:45;;;;;;;3.1;2.8;;;;;;;;;;;;;
2021/04/15 02:52:10;;;;;;;3.6;2.5;;;;;;;;;;;;;
2021/04/15 02:54:35;;;;;;;6.7;2.9;;;;;;;;;;;;;
2021/04/15 02:57:00;;;;;;;3.5;2.5;;;;;;;;;;;;;
2021/04/15 02:59:25;;;;;;;6.3;2.3;;;;;;;;;;;;;
2021/04/15 03:01:51;;;;;;;3;2;;;;;;;;;;;;;
2021/04/15 03:04:16;;;;;;;3.3;2.5;;;;;;;;;;;;;
2021/04/15 03:06:41;;;;;;;4.5;2.6;;;;;;;;;;;;;
2021/04/15 03:09:07;;;;;;;2.7;2.2;;;;;;;;;;;;;
2021/04/15 03:11:32;;;;;;;3;2.6;;;;;;;;;;;;;
2021/04/15 03:13:58;;;;;;;2.6;1.8;;;;;;;;;;;;;
2021/04/15 03:16:23;;;;;;;4.6;2.3;;;;;;;;;;;;;
2021/04/15 03:18:49;;;;;;;3.4;2.1;;;;;;;;;;;;;
2021/04/15 03:21:14;;;;;;;2.2;2;;;;;;;;;;;;;
2021/04/15 03:23:40;;;;;;;4.4;2.4;;;;;;;;;;;;;
2021/04/15 03:26:05;;;;;;;6.1;2.7;;;;;;;;;;;;;
2021/04/15 03:28:31;;;;;;;3.4;2.6;;;;;;;;;;;;;
2021/04/15 03:30:56;;;;;;;3.4;2;;;;;;;;;;;;;
2021/04/15 03:33:21;;;;;;;2.8;2.3;;;;;;;;;;;;;
2021/04/15 03:35:47;;;;;;;4.9;2.3;;;;;;;;;;;;;
2021/04/15 03:38:13;;;;;;;4;3;;;;;;;;;;;;;
2021/04/15 03:40:39;;;;;;;4.3;3.1;;;;;;;;;;;;;
2021/04/15 03:43:04;;;;;;;5.2;3.4;;;;;;;;;;;;;
2021/04/15 03:45:29;;;;;;;4.8;3;;;;;;;;;;;;;
2021/04/15 03:47:55;;;;;;;5.1;2.7;;;;;;;;;;;;;
2021/04/15 03:50:20;;;;;;;4.2;2.8;;;;;;;;;;;;;
2021/04/15 03:52:46;;;;;;;3.8;2.9;;;;;;;;;;;;;
2021/04/15 03:55:11;;;;;;;3.1;2.6;;;;;;;;;;;;;
2021/04/15 03:57:36;;;;;;;3.8;2.9;;;;;;;;;;;;;
2021/04/15 04:00:01;;;;;;;5.4;3.3;;;;;;;;;;;;;
2021/04/15 04:02:30;;;;;;;2.9;1.9;;;;;;;2.27;79.66113;943.0795;;;;
2021/04/15 04:04:55;;;;;;;3.5;2.1;;;;;;;2.21;79.78516;943.0894;;;;
2021/04/15 04:07:20;;;;;;;2.8;2.3;;;;;;;2.19;79.8457;943.087;;;;
2021/04/15 04:09:45;;;;;;;4.3;3;;;;;;;2.28;79.33789;943.0966;;;;
2021/04/15 04:12:10;;;;;;;5.2;3.9;;;;;;;2.33;79.18066;943.106;;;;
2021/04/15 04:14:36;;;;;;;3.9;3.1;;;;;;;2.32;79.94043;943.0834;;;;
2021/04/15 04:17:03;;;;;;;3.8;2.5;;;;;;;2.25;80.81152;943.1625;;;;
2021/04/15 04:19:30;;;;;;;3.1;2.6;;;;;;;2.3;80.84277;943.0691;;;;
2021/04/15 04:21:53;;;;;;;4.3;3.3;;;;;;;2.36;80.4834;943.1835;;;;
2021/04/15 04:24:21;;;;;;;3.2;1.9;;;;;;;2.4;80.03418;943.153;;;;
2021/04/15 04:26:47;;;;;;;4.1;2.8;;;;;;;2.3;79.81348;943.139;;;;
2021/04/15 04:29:11;;;;;;;4.7;2.9;;;;;;;2.35;79.37207;943.1161;;;;
2021/04/15 04:31:36;;;;;;;5.1;3.3;;;;;;;2.35;78.52148;943.0831;;;;
2021/04/15 04:34:01;;;;;;;4.5;3.6;;;;;;;2.34;76.89551;943.1361;;;;
2021/04/15 04:36:26;;;;;;;5.9;3.5;;;;;;;2.31;76.58789;943.1311;;;;
2021/04/15 04:38:51;;;;;;;6.4;3.4;;;;;;;2.24;78.88184;943.1164;;;;
2021/04/15 04:41:17;;;;;;;3;2.4;;;;;;;2.14;79.79395;943.0778;;;;
2021/04/15 04:43:43;;;;;;;4.8;3;;;;;;;1.94;80.40625;943.0889;;;;
2021/04/15 04:46:08;;;;;;;6;2.6;;;;;;;1.95;80.38379;943.079;;;;
2021/04/15 04:48:34;;;;;;;4.2;3.2;;;;;;;2.07;80.36328;943.134;;;;
2021/04/15 04:50:59;;;;;;;2.9;2.5;;;;;;;1.98;80.68164;943.0925;;;;
2021/04/15 04:53:24;;;;;;;9.3;3.4;;;;;;;2.02;80.3877;943.152;;;;
2021/04/15 04:55:51;;;;;;;5.5;2.9;;;;;;;2.06;79.26367;943.1831;;;;
2021/04/15 04:58:22;;;;;;;6.8;3.5;;;;;;;2.21;78.84277;943.2416;;;;
2021/04/15 05:00:52;;;;;;;8;4;;;;;;;2.23;78.55566;943.2589;;;;
2021/04/15 05:03:17;;;;;;;3.7;2.4;;;;;;;2.18;78.60352;943.2831;;;;
2021/04/15 05:05:42;;;;;;;3.4;2.5;;;;;;;2.29;78.19727;943.3334;;;;
2021/04/15 05:08:09;;;;;;;5.4;3.8;;;;;;;2.34;77.58008;943.3604;;;;
2021/04/15 05:10:34;;;;;;;5.4;3.9;;;;;;;2.26;77.95703;943.3879;;;;
2021/04/15 05:13:02;;;;;;;6;4;;;;;;;2.28;78.80078;943.4165;;;;
2021/04/15 05:15:33;;;;;;;5.2;3.5;;;;;;;2.4;79.29297;943.4008;;;;
2021/04/15 05:17:58;;;;;;;7.8;3.9;;;;;;;2.43;78.90723;943.4405;;;;
2021/04/15 05:20:26;;;;;;;6.4;4.1;;;;;;;2.45;79.24707;943.4664;;;;
2021/04/15 05:22:49;;;;;;;5;3.7;;;;;;;2.51;78.78613;943.4693;;;;
2021/04/15 05:25:15;;;;;;;7;4.2;;;;;;;2.56;78.06836;943.4211;;;;
2021/04/15 05:27:40;;;;;;;5.7;3.3;;;;;;;2.72;77.46875;943.4542;;;;
2021/04/15 05:30:05;;;;;;;6.5;3.8;;;;;;;2.97;76.81934;943.4668;;;;
2021/04/15 05:32:33;;;;;;;7.7;5.1;;;;;;;3.11;74.57813;943.4377;;;;
2021/04/15 05:34:58;;;;;;;12.1;4.7;;;;;;;3.2;73.4043;943.4252;;;;
2021/04/15 05:37:25;;;;;;;15.5;9;;;;;;;3.23;72.18555;943.4285;;;;
2021/04/15 05:39:51;;;;;;;5.8;3.4;;;;;;;3.15;71.27441;943.4084;;;;
2021/04/15 05:42:16;;;;;;;3.4;2.6;;;;;;;3.19;70.19434;943.4586;;;;
2021/04/15 05:44:41;;;;;;;3.2;2.4;;;;;;;3.16;70.5127;943.4719;;;;
2021/04/15 05:47:06;;;;;;;6.8;3.4;;;;;;;3.12;70.8877;943.4827;;;;
2021/04/15 05:49:31;;;;;;;3.5;2.5;;;;;;;2.78;70.68652;943.421;;;;
2021/04/15 05:51:57;;;;;;;8.8;3.9;;;;;;;2.92;71.31348;943.4692;;;;
2021/04/15 05:54:22;;;;;;;3.5;2.7;;;;;;;2.74;73.02246;943.4955;;;;
2021/04/15 05:56:50;;;;;;;5;3.2;;;;;;;3;72.53906;943.5485;;;;
2021/04/15 05:59:15;;;;;;;4.7;3.1;;;;;;;3.19;71.86523;943.5497;;;;
2021/04/15 06:01:41;;;;;;;2.7;2.2;;;;;;;3.24;71.41406;943.5916;;;;
2021/04/15 06:04:06;;;;;;;4.2;3;;;;;;;3.34;70.57813;943.5332;;;;
2021/04/15 06:06:31;;;;;;;3.5;2.4;;;;;;;3.37;68.72949;943.5652;;;;
2021/04/15 06:08:56;;;;;;;2.5;1.9;;;;;;;3.47;68.44336;943.5693;;;;
2021/04/15 06:11:21;;;;;;;6.3;3.2;;;;;;;3.49;68.53613;943.5308;;;;
2021/04/15 06:13:48;;;;;;;3.6;2.5;;;;;;;3.56;68.56738;943.5486;;;;
2021/04/15 06:16:13;;;;;;;4.7;3.2;;;;;;;3.66;69.62988;943.5882;;;;
2021/04/15 06:18:38;;;;;;;7.3;3.6;;;;;;;3.74;71.91211;943.5922;;;;
2021/04/15 06:21:03;;;;;;;5.4;3.1;;;;;;;3.72;72.48242;943.596;;;;
2021/04/15 06:23:28;;;;;;;5.9;3.8;;;;;;;3.82;72.44336;943.6061;;;;
2021/04/15 06:25:54;;;;;;;5.3;3.5;;;;;;;3.94;72.47363;943.6066;;;;
2021/04/15 06:28:18;;;;;;;7.3;3.7;;;;;;;4.08;72.05957;943.6498;;;;
2021/04/15 06:30:44;;;;;;;3.9;3.1;;;;;;;4.04;71.89648;943.6614;;;;
2021/04/15 06:33:09;;;;;;;6.8;3.9;;;;;;;4.16;71.27539;943.5972;;;;
2021/04/15 06:35:35;;;;;;;3.9;3;;;;;;;4.25;70.22168;943.6417;;;;
2021/04/15 06:38:00;;;;;;;3.7;2.7;;;;;;;4.35;70.05859;943.6663;;;;
2021/04/15 06:40:25;;;;;;;5.2;3.1;;;;;;;4.43;69.62207;943.6842;;;;
2021/04/15 06:42:50;;;;;;;4.5;3.5;;;;;;;4.68;68.49023;943.6583;;;;
2021/04/15 06:45:16;;;;;;;4.9;3;;;;;;;4.9;67.1748;943.7461;;;;
2021/04/15 06:47:41;;;;;;;5.7;2.9;;;;;;;4.99;66.79297;943.6658;;;;
2021/04/15 06:50:07;;;;;;;6;3.2;;;;;;;4.93;66.55762;943.7692;;;;
2021/04/15 06:52:34;;;;;;;5.8;3.1;;;;;;;5.01;65.78125;943.704;;;;
2021/04/15 06:54:58;;;;;;;4.1;3.1;;;;;;;4.96;66.81152;943.7444;;;;
2021/04/15 06:57:23;;;;;;;5.6;3.4;;;;;;;5.09;67.95801;943.7452;;;;
2021/04/15 06:59:48;;;;;;;4.1;3.3;;;;;;;5.22;66.81836;943.7346;;;;
2021/04/15 07:02:13;;;;;;;6;3.8;;;;;;;5.1;66.57422;943.6878;;;;
2021/04/15 07:04:38;;;;;;;6.4;3.9;;;;;;;4.97;66.81445;943.7505;;;;
2021/04/15 07:07:05;;;;;;;4.8;3;;;;;;;4.75;67.54492;943.7477;;;;
2021/04/15 07:09:31;;;;;;;4;3.3;;;;;;;4.72;69.10449;943.726;;;;
2021/04/15 07:11:56;;;;;;;4.8;3.8;;;;;;;4.74;67.59863;943.729;;;;
2021/04/15 07:14:22;;;;;;;4.4;3.2;;;;;;;4.64;68.01172;943.7361;;;;
2021/04/15 07:16:47;;;;;;;10.8;3.5;;;;;;;4.71;68.53027;943.7605;;;;
2021/04/15 07:19:12;;;;;;;5.9;3.7;;;;;;;4.81;68.28516;943.6707;;;;
2021/04/15 07:21:37;;;;;;;4;3.3;;;;;;;4.81;67.95996;943.7544;;;;
2021/04/15 07:24:02;;;;;;;9.5;3.9;;;;;;;4.91;66.92676;943.7828;;;;
2021/04/15 07:26:27;;;;;;;5.3;4;;;;;;;5.1;66.5957;943.7271;;;;
2021/04/15 07:28:53;;;;;;;4.4;3.1;;;;;;;5.03;67.16113;943.7516;;;;
2021/04/15 07:31:18;;;;;;;7;4.2;;;;;;;5.01;67.66406;943.7433;;;;
2021/04/15 07:33:43;;;;;;;5.5;3.2;;;;;;;5.04;67.56641;943.7366;;;;
2021/04/15 07:36:08;;;;;;;5.6;2.9;;;;;;;4.95;66.43652;943.747;;;;
2021/04/15 07:38:33;;;;;;;5.1;3.5;;;;;;;5.01;65.77148;943.7918;;;;
2021/04/15 07:40:58;;;;;;;4.9;2.9;;;;;;;5.06;65.79004;943.7367;;;;
2021/04/15 07:43:24;;;;;;;5.3;3.7;;;;;;;5.18;65.61719;943.7597;;;;
2021/04/15 07:45:49;;;;;;;3.9;2.9;;;;;;;5.04;66.30566;943.7637;;;;
2021/04/15 07:48:14;;;;;;;4.3;3.2;;;;;;;4.97;67.17188;943.8062;;;;
2021/04/15 07:50:39;;;;;;;5.5;3.4;;;;;;;5.1;66.03223;943.8242;;;;
2021/04/15 07:53:04;;;;;;;4.5;3.2;;;;;;;5.14;66.63477;943.8076;;;;
2021/04/15 07:55:30;;;;;;;7.2;3.6;;;;;;;4.96;66.62988;943.8531;;;;
2021/04/15 07:57:55;;;;;;;6.7;4;;;;;;;4.96;67.36328;943.8431;;;;
2021/04/15 08:00:20;;;;;;;6.6;3.7;;;;;;;5.11;66.6084;943.8632;;;;
2021/04/15 08:02:45;;;;;;;4.7;3.1;;;;;;;5.08;67.5625;943.874;;;;
2021/04/15 08:05:11;;;;;;;4.4;2.8;;;;;;;5;67.21289;943.8848;;;;
2021/04/15 08:07:38;;;;;;;7.4;3.7;;;;;;;5.13;66.56738;943.8381;;;;
2021/04/15 08:10:03;;;;;;;6.6;3.1;;;;;;;5.28;66.44336;943.8298;;;;
2021/04/15 08:12:29;;;;;;;5.9;3.5;;;;;;;5.27;65.62988;943.8998;;;;
2021/04/15 08:14:55;;;;;;;3.8;2.8;;;;;;;5.16;66.79688;943.9041;;;;
2021/04/15 08:17:20;;;;;;;4;3.1;;;;;;;5.2;65.78906;943.9064;;;;
2021/04/15 08:19:45;;;;;;;5.4;3.4;;;;;;;5.41;65.88867;943.907;;;;
2021/04/15 08:22:10;;;;;;;3.4;2.5;;;;;;;5.58;64.74023;943.8713;;;;
2021/04/15 08:24:35;;;;;;;7.1;3.2;;;;;;;5.65;63.05762;943.8586;;;;
2021/04/15 08:27:03;;;;;;;6;3.5;;;;;;;5.75;62.92676;943.8386;;;;
2021/04/15 08:29:50;;;;;;;4.5;3.3;;;;;;;5.75;62.84668;943.829;;;;
2021/04/15 08:32:15;;;;;;;5.1;2.7;;;;;;;5.96;61.16016;943.8401;;;;
2021/04/15 08:34:40;;;;;;;4;2.9;;;;;;;6;61.52832;943.8028;;;;
2021/04/15 08:37:06;;;;;;;4.8;2.7;;;;;;;6.15;62.71387;943.7422;;;;
2021/04/15 08:39:31;;;;;;;4.3;2.9;;;;;;;6.09;61.62012;943.8159;;;;
2021/04/15 08:41:56;;;;;;;5.7;3.6;;;;;;;6.02;61.8584;943.7352;;;;
2021/04/15 08:44:21;;;;;;;4.4;3.1;;;;;;;6.18;61.56543;943.812;;;;
2021/04/15 08:46:46;;;;;;;5.9;2.6;;;;;;;6.14;59.55859;943.7781;;;;
2021/04/15 08:49:14;;;;;;;3.6;2.9;;;;;;;6.28;60.23438;943.7436;;;;
2021/04/15 08:51:41;;;;;;;3;2.3;;;;;;;6.34;59.63184;943.7693;;;;
2021/04/15 08:54:07;;;;;;;4.4;3;;;;;;;6.33;61.80078;943.7297;;;;
2021/04/15 08:56:33;;;;;;;4.8;2.9;;;;;;;6.05;61.03711;943.7489;;;;
2021/04/15 08:58:58;;;;;;;5.9;2.1;;;;;;;6.11;61.15918;943.788;;;;
2021/04/15 09:01:28;;;;;;;3.5;2.5;;;;;;;5.72;64.81836;943.7545;;;;
2021/04/15 09:03:53;;;;;;;4.5;2.7;;;;;;;5.57;65.04395;943.7385;;;;
2021/04/15 09:06:18;;;;;;;8.4;2.7;;;;;;;5.54;64.48633;943.7958;;;;
2021/04/15 09:08:43;;;;;;;3.1;2.4;;;;;;;5.37;65.54199;943.7802;;;;
2021/04/15 09:11:09;;;;;;;3.2;2.4;;;;;;;5.19;66.14746;943.7908;;;;
2021/04/15 09:13:34;;;;;;;3;2.7;;;;;;;5.3;66.01855;943.8102;;;;
2021/04/15 09:16:01;;;;;;;3.2;2.4;;;;;;;5.24;64.53125;943.7953;;;;
2021/04/15 09:18:26;;;;;;;4.4;2.5;;;;;;;5.24;64.43066;943.7977;;;;
2021/04/15 09:20:52;;;;;;;3.8;2.8;;;;;;;5.21;64.10938;943.8036;;;;
2021/04/15 09:23:16;;;;;;;3.6;2.2;;;;;;;5.16;62.29785;943.8069;;;;
2021/04/15 09:25:41;;;;;;;2.9;2.4;;;;;;;5.22;62.05957;943.7812;;;;
2021/04/15 09:28:08;;;;;;;6.5;2.7;;;;;;;5.3;61.69922;943.6848;;;;
2021/04/15 09:30:35;;;;;;;3.9;2.4;;;;;;;5.49;61.39746;943.7661;;;;
2021/04/15 09:33:00;;;;;;;4.3;3.1;;;;;;;5.49;61.38672;943.759;;;;
2021/04/15 09:35:25;;;;;;;5.5;2.2;;;;;;;5.41;60.92383;943.7363;;;;
2021/04/15 09:37:50;;;;;;;5.2;2.9;;;;;;;5.23;61.41797;943.7475;;;;
2021/04/15 09:40:15;;;;;;;10.3;2.7;;;;;;;5.03;62.70801;943.7567;;;;
2021/04/15 09:42:40;;;;;;;7.1;2.4;;;;;;;5.23;61.85742;943.6448;;;;
2021/04/15 09:45:06;;;;;;;5.6;2.1;;;;;;;5.41;60.83301;943.7205;;;;
2021/04/15 09:47:31;;;;;;;4.7;2.3;;;;;;;6.19;59.84863;943.6573;;;;
2021/04/15 09:49:56;;;;;;;4;2.6;;;;;;;6.95;57.58789;943.5616;;;;
2021/04/15 09:52:21;;;;;;;3;1.9;;;;;;;7.37;55.14063;943.6409;;;;
2021/04/15 09:54:46;;;;;;;5.1;2.2;;;;;;;6.62;54.64648;943.6702;;;;
2021/04/15 09:57:12;;;;;;;2.1;1.9;;;;;;;6.65;54.51563;943.6245;;;;
2021/04/15 09:59:37;;;;;;;2.6;1.9;;;;;;;7.26;52.21387;943.5662;;;;
2021/04/15 10:02:02;;;;;;;2.9;1.9;;;;;;;7.47;50.13086;943.587;;;;
2021/04/15 10:04:27;;;;;;;2.6;1.8;;;;;;;7.88;50.68848;943.5009;;;;
2021/04/15 10:06:54;;;;;;;2.6;1.8;;;;;;;8.16;50.34766;943.5517;;;;
2021/04/15 10:09:18;;;;;;;2.1;1.6;;;;;;;7.77;53.18359;943.5158;;;;
2021/04/15 10:11:44;;;;;;;2.1;1.8;;;;;;;7.41;54.96387;943.5614;;;;
2021/04/15 10:14:09;;;;;;;2.8;1.5;;;;;;;7.27;56.05664;943.515;;;;
2021/04/15 10:16:34;;;;;;;3.4;2.1;;;;;;;6.98;57.16113;943.4904;;;;
2021/04/15 10:19:01;;;;;;;2.2;1.8;;;;;;;7.81;54.66309;943.5134;;;;
2021/04/15 10:21:25;;;;;;;2.9;1.8;;;;;;;8.46;53.55371;943.4686;;;;
2021/04/15 10:23:49;;;;;;;1.7;1.3;;;;;;;9.84;51.22754;943.4736;;;;
2021/04/15 10:26:14;;;;;;;1.9;1.1;;;;;;;10.18;48.57617;943.3669;;;;
2021/04/15 10:28:40;;;;;;;1.9;1.4;;;;;;;10.49;48.42773;943.4116;;;;
2021/04/15 10:31:05;;;;;;;2.1;1.1;;;;;;;11.62;45.12012;943.3777;;;;
2021/04/15 10:33:32;;;;;;;1.8;1.2;;;;;;;11.83;44.51367;943.3069;;;;
2021/04/15 10:35:56;;;;;;;6;1.3;;;;;;;12.43;41.59277;943.2698;;;;
2021/04/15 10:38:21;;;;;;;1.2;0.8;;;;;;;13.18;40.44727;943.2609;;;;
2021/04/15 10:41:09;;;;;;;0.5;0.5;;;;;;;12.87;40.64844;943.2658;;;;
2021/04/15 10:43:37;;;;;;;1.3;1.2;;;;;;;12.53;40.9375;943.207;;;;
2021/04/15 10:46:05;;;;;;;1.2;0.9;;;;;;;11.54;44.04883;943.1699;;;;
2021/04/15 10:48:30;;;;;;;1.6;1.1;;;;;;;10.77;44.91797;943.2249;;;;
2021/04/15 10:50:58;;;;;;;0.8;0.8;;;;;;;10.73;46.53613;943.2059;;;;
2021/04/15 10:53:23;;;;;;;1.8;1.2;;;;;;;11.06;45.0625;943.2706;;;;
2021/04/15 10:55:48;;;;;;;1.4;0.9;;;;;;;11.84;43.59766;943.2344;;;;
2021/04/15 10:58:14;;;;;;;2.7;0.8;;;;;;;11.77;43.80762;943.1467;;;;
2021/04/15 11:00:39;;;;;;;1.6;1.4;;;;;;;10.91;47.77832;943.2187;;;;
2021/04/15 11:03:05;;;;;;;2.5;1.5;;;;;;;11;46.41699;943.1619;;;;
2021/04/15 11:05:34;;;;;;;1.5;1.1;;;;;;;10.43;48.47949;943.1303;;;;
2021/04/15 11:07:59;;;;;;;1.6;1.1;;;;;;;10.98;46.81543;943.1361;;;;
2021/04/15 11:10:24;;;;;;;3.3;1.6;;;;;;;11.36;45.34473;943.0904;;;;
2021/04/15 11:12:49;;;;;;;1.8;1.1;;;;;;;12.29;41.90039;943.1156;;;;
2021/04/15 11:15:16;;;;;;;1.8;1;;;;;;;11.24;44.94434;942.9565;;;;
2021/04/15 11:17:41;;;;;;;0.9;0.8;;;;;;;10.84;47.13086;943.0725;;;;
2021/04/15 11:20:08;;;;;;;1;0.9;;;;;;;11.7;45.04883;943.0851;;;;
2021/04/15 11:22:35;;;;;;;1.8;0.9;;;;;;;12.13;45.3457;943.1047;;;;
2021/04/15 11:25:00;;;;;;;1;0.9;;;;;;;11.54;45.31836;943.1171;;;;
2021/04/15 11:27:25;;;;;;;1;0.9;;;;;;;11.18;45.8291;943.1536;;;;
2021/04/15 11:29:51;;;;;;;1.3;1;;;;;;;10.25;47.81934;943.1642;;;;
2021/04/15 11:32:16;;;;;;;10;1.6;;;;;;;9.5;51.91699;943.0416;;;;
2021/04/15 11:34:41;;;;;;;1.1;1;;;;;;;8.46;52.0293;943.1328;;;;
2021/04/15 11:37:06;;;;;;;2.3;1.1;;;;;;;8.53;53.44922;943.2204;;;;
2021/04/15 11:39:31;;;;;;;1.6;1;;;;;;;9.43;49.76758;943.2117;;;;
2021/04/15 11:41:56;;;;;;;3.8;1.7;;;;;;;9.56;47.44727;943.1453;;;;
2021/04/15 11:44:21;;;;;;;7.5;1.3;;;;;;;9.42;49.80078;943.2139;;;;
2021/04/15 11:46:47;;;;;;;1.8;1.2;;;;;;;9;49.42188;943.217;;;;
2021/04/15 11:49:12;;;;;;;2.4;1.1;;;;;;;8.91;49.57031;943.2634;;;;
2021/04/15 11:51:37;;;;;;;1.7;1.2;;;;;;;9.35;47.38965;943.2612;;;;
2021/04/15 11:54:02;;;;;;;1.6;1.5;;;;;;;9.56;47.83496;943.2264;;;;
2021/04/15 11:56:28;;;;;;;3.5;1.3;;;;;;;9.74;48.16211;943.2375;;;;
2021/04/15 11:58:53;;;;;;;2.2;1.1;;;;;;;9.86;46.93262;943.1813;;;;
2021/04/15 12:01:18;;;;;;;2.2;1.3;;;;;;;10.39;45.18555;943.1738;;;;
2021/04/15 12:03:43;;;;;;;1.4;1.1;;;;;;;10.48;45.48145;943.1503;;;;
2021/04/15 12:06:08;;;;;;;1.1;1;;;;;;;10.69;43.88184;943.163;;;;
2021/04/15 12:08:38;;;;;;;1.8;1;;;;;;;10.23;46.20801;943.1058;;;;
2021/04/15 12:11:05;;;;;;;2.5;1.6;;;;;;;10.05;45.56152;943.1281;;;;
2021/04/15 12:13:30;;;;;;;1.1;1;;;;;;;10;46.05859;943.1611;;;;
2021/04/15 12:15:57;;;;;;;2;1.1;;;;;;;10.05;45.24316;943.0955;;;;
2021/04/15 12:18:22;;;;;;;1.5;1;;;;;;;10.32;43.69531;943.0795;;;;
2021/04/15 12:20:47;;;;;;;2.1;1;;;;;;;10.43;42.82813;943.0761;;;;
2021/04/15 12:23:12;;;;;;;1;0.9;;;;;;;10.69;40.55762;943.1111;;;;
2021/04/15 12:25:37;;;;;;;0.7;0.7;;;;;;;8.83;48.53809;943.1933;;;;
2021/04/15 12:28:03;;;;;;;4.4;0.9;;;;;;;8.29;48.06836;943.0573;;;;
2021/04/15 12:30:28;;;;;;;1.5;1.4;;;;;;;7.58;51.40234;943.1139;;;;
2021/04/15 12:32:53;;;;;;;1.9;1.2;;;;;;;7.38;51.57129;943.1808;;;;
2021/04/15 12:35:18;;;;;;;1.1;0.8;;;;;;;7.75;49.1875;943.0983;;;;
2021/04/15 12:37:44;;;;;;;0.8;0.8;;;;;;;7.74;48.50488;943.0037;;;;
2021/04/15 12:40:09;;;;;;;1.7;0.9;;;;;;;7.71;51.21289;943.0514;;;;
2021/04/15 12:42:34;;;;;;;2.1;1.4;;;;;;;8.14;51.02637;943.0086;;;;
2021/04/15 12:44:59;;;;;;;0.7;0.7;;;;;;;8.64;46.2666;942.99;;;;
2021/04/15 12:47:25;;;;;;;2.1;0.9;;;;;;;8.82;46.74121;942.9469;;;;
2021/04/15 12:49:50;;;;;;;3;1.2;;;;;;;9.25;45.52344;942.8729;;;;
2021/04/15 12:52:15;;;;;;;0.7;0.7;;;;;;;8.92;45.00977;942.8236;;;;
2021/04/15 12:54:40;;;;;;;1.8;1.1;;;;;;;8.63;46.95898;942.8588;;;;
2021/04/15 12:57:06;;;;;;;3.4;1;;;;;;;9.07;45.43457;942.7089;;;;
2021/04/15 12:59:31;;;;;;;1;0.9;;;;;;;9.4;42.89746;942.7585;;;;
2021/04/15 13:01:56;;;;;;;0.7;0.7;;;;;;;10.18;42.66602;942.7772;;;;
2021/04/15 13:04:21;;;;;;;2.7;1;;;;;;;10.79;40.4082;942.7425;;;;
2021/04/15 13:06:46;;;;;;;1.4;0.9;;;;;;;10.1;45.98926;942.6379;;;;
2021/04/15 13:09:13;;;;;;;1.3;0.9;;;;;;;9.37;46.34375;942.8086;;;;
2021/04/15 13:11:39;;;;;;;0.7;0.7;;;;;;;8.53;46.86719;942.8275;;;;
2021/04/15 13:14:04;;;;;;;1.8;1.1;;;;;;;8;47.05957;942.7891;;;;
2021/04/15 13:16:29;;;;;;;0.9;0.8;;;;;;;7.79;48.31836;942.7864;;;;
2021/04/15 13:18:56;;;;;;;2.1;1.3;;;;;;;7.64;48.24414;942.7679;;;;
2021/04/15 13:21:21;;;;;;;1.1;1;;;;;;;7.54;49.79785;942.7625;;;;
2021/04/15 13:23:46;;;;;;;1.8;1.3;;;;;;;7.56;48.69043;942.8076;;;;
2021/04/15 13:26:11;;;;;;;0.8;0.7;;;;;;;7.46;49.19922;942.7484;;;;
2021/04/15 13:28:36;;;;;;;0.8;0.8;;;;;;;7.21;48.66113;942.7363;;;;
2021/04/15 13:31:02;;;;;;;1.6;1.3;;;;;;;7.22;51.13281;942.7327;;;;
2021/04/15 13:33:28;;;;;;;3.5;1.7;;;;;;;7.23;50.2041;942.7289;;;;
2021/04/15 13:35:53;;;;;;;5.5;1.8;;;;;;;6.94;49.80859;942.7341;;;;
2021/04/15 13:38:18;;;;;;;1.1;1;;;;;;;6.89;49.20313;942.7205;;;;
2021/04/15 13:40:46;;;;;;;1.6;1.4;;;;;;;6.92;49.48828;942.6803;;;;
2021/04/15 13:43:11;;;;;;;1.9;1.3;;;;;;;7.02;49.21777;942.7162;;;;
2021/04/15 13:45:36;;;;;;;1.1;1;;;;;;;7.54;48.73242;942.7268;;;;
2021/04/15 13:48:01;;;;;;;1.7;1.5;;;;;;;7.79;48.875;942.7865;;;;
2021/04/15 13:50:26;;;;;;;1.5;1.2;;;;;;;7.74;48.57422;942.7858;;;;
2021/04/15 13:52:51;;;;;;;3.7;1.6;;;;;;;7.9;47.67383;942.7928;;;;
2021/04/15 13:55:17;;;;;;;2.1;1.2;;;;;;;7.21;49.23828;942.7453;;;;
2021/04/15 13:57:42;;;;;;;2.4;1.5;;;;;;;7.03;50.61133;942.7353;;;;
2021/04/15 14:00:07;;;;;;;4.1;1.3;;;;;;;7.34;49.52539;942.7336;;;;
2021/04/15 14:02:34;;;;;;;1.7;1.1;;;;;;;7.04;48.78906;942.6881;;;;
2021/04/15 14:05:01;;;;;;;1.6;1.1;;;;;;;7.28;48.02246;942.6194;;;;
2021/04/15 14:07:25;;;;;;;1.5;1.1;;;;;;;7.43;47.20117;942.6264;;;;
2021/04/15 14:09:49;;;;;;;1.6;1.3;;;;;;;7.45;47.04492;942.555;;;;
2021/04/15 14:12:15;;;;;;;1.9;1.2;;;;;;;7.42;47.28027;942.5589;;;;
2021/04/15 14:14:44;;;;;;;0.9;0.9;;;;;;;7.93;46.49609;942.5938;;;;
2021/04/15 14:17:13;;;;;;;1.3;1;;;;;;;8.46;44.33691;942.6383;;;;
2021/04/15 14:19:40;;;;;;;1.7;1.2;;;;;;;8.37;43.81641;942.5114;;;;
2021/04/15 14:22:05;;;;;;;2.2;1.3;;;;;;;8.95;42.53418;942.5941;;;;
2021/04/15 14:24:30;;;;;;;1.3;1;;;;;;;8.35;42.90625;942.6046;;;;
2021/04/15 14:26:58;;;;;;;2.1;1.2;;;;;;;8.57;41.24609;942.522;;;;
2021/04/15 14:29:21;;;;;;;1.4;1.2;;;;;;;8.76;40.58105;942.5894;;;;
2021/04/15 14:31:48;;;;;;;1.1;1;;;;;;;8.74;39.61426;942.5478;;;;
2021/04/15 14:34:12;;;;;;;2.4;1.6;;;;;;;7.47;51.66113;942.5602;;;;
2021/04/15 14:36:38;;;;;;;1.3;1.2;;;;;;;7.35;52.09961;942.6016;;;;
2021/04/15 14:39:05;;;;;;;2.6;1.8;;;;;;;7.73;50.21777;942.512;;;;
2021/04/15 14:41:30;;;;;;;1.4;1.2;;;;;;;7.18;52.59961;942.5822;;;;
2021/04/15 14:43:55;;;;;;;4.8;2.2;;;;;;;6.89;53.7998;942.6099;;;;
2021/04/15 14:46:21;;;;;;;1.2;1.1;;;;;;;6.15;55.36816;942.572;;;;
2021/04/15 14:48:45;;;;;;;2.1;1.4;;;;;;;5.45;58.7168;942.6211;;;;
2021/04/15 14:51:12;;;;;;;2.2;1.5;;;;;;;5.31;59.66992;942.624;;;;
2021/04/15 14:53:35;;;;;;;2.1;1.2;;;;;;;5.22;58.55078;942.6378;;;;
2021/04/15 14:56:01;;;;;;;2.3;1.3;;;;;;;5.22;59.04688;942.6891;;;;
2021/04/15 14:58:26;;;;;;;1.8;1.4;;;;;;;5.19;59.49414;942.6506;;;;
2021/04/15 15:00:51;;;;;;;2.3;1.8;;;;;;;5.23;61.30469;942.5744;;;;
2021/04/15 15:03:16;;;;;;;3.8;1.9;;;;;;;5.16;61.99414;942.5793;;;;
2021/04/15 15:05:44;;;;;;;8.7;5;;;;;;;5.58;59.49219;942.5695;;;;
2021/04/15 15:08:09;;;;;;;4;1.6;;;;;;;5.86;58.0625;942.5411;;;;
2021/04/15 15:10:37;;;;;;;2.8;2.2;;;;;;;6.13;57.08203;942.5317;;;;
2021/04/15 15:13:02;;;;;;;2.7;1.5;;;;;;;6.35;56.01563;942.3867;;;;
2021/04/15 15:15:37;;;;;;;2.4;1.6;;;;;;;6.46;52.7041;942.4814;;;;
2021/04/15 15:18:03;;;;;;;1.4;1.3;;;;;;;6.71;52.53223;942.4444;;;;
2021/04/15 15:20:28;;;;;;;4.6;2;;;;;;;6.66;51.23535;942.366;;;;
2021/04/15 15:22:53;;;;;;;1.7;1.2;;;;;;;6.47;48.14746;942.4578;;;;
2021/04/15 15:25:20;;;;;;;1.7;1.3;;;;;;;6.96;50.11621;942.4291;;;;
2021/04/15 15:27:49;;;;;;;1.7;1.5;;;;;;;7.06;47.37695;942.4481;;;;
2021/04/15 15:30:14;;;;;;;1.3;1.2;;;;;;;7.26;48.09961;942.4295;;;;
2021/04/15 15:32:39;;;;;;;2.5;0.9;;;;;;;7.35;47.83789;942.3631;;;;
2021/04/15 15:35:04;;;;;;;1.5;1.3;;;;;;;7.31;48.96777;942.3937;;;;
2021/04/15 15:37:29;;;;;;;1.7;1.1;;;;;;;7.48;49.32715;942.3664;;;;
2021/04/15 15:39:55;;;;;;;1.4;1.2;;;;;;;7.45;46.19531;942.3908;;;;